Date,TemperatureHighF,TemperatureAvgF,TemperatureLowF,DewpointHighF,DewpointAvgF,DewpointLowF,HumidityHigh,HumidityAvg,HumidityLow,PressureMaxIn,PressureMinIn,WindSpeedMaxMPH,WindSpeedAvgMPH,GustSpeedMaxMPH,PrecipitationSumIn
2013-1-1,77.4,72.0,61.9,63.9,60.9,57.9,91,69,59,30.21,30.06,16,2,16,0.00
2013-1-2,79.9,69.2,58.8,68.4,64.1,57.4,99,85,56,30.09,29.99,9,1,10,0.00
2013-1-3,79.7,72.3,64.9,70.0,67.2,63.5,97,85,67,30.14,30.03,12,1,12,0.00
2013-1-4,80.4,71.1,64.2,71.8,67.7,63.1,99,90,74,30.23,30.11,8,0,8,0.00
2013-1-5,76.8,68.5,63.0,70.5,66.7,61.9,98,94,77,30.25,30.16,8,0,8,0.13
2013-1-6,80.6,72.9,62.6,72.1,69.0,61.7,99,88,74,30.19,30.06,12,1,13,0.01
2013-1-7,73.8,69.5,65.8,70.5,68.0,64.9,98,95,87,30.17,30.07,9,0,10,0.27
2013-1-8,81.0,75.4,70.2,73.9,71.4,67.1,97,88,76,30.20,30.08,15,1,15,0.31
2013-1-9,82.0,77.3,73.8,73.4,71.1,68.9,91,82,74,30.29,30.16,12,2,13,0.01
2013-1-10,80.8,76.1,73.9,70.2,67.6,64.6,84,75,59,30.30,30.19,13,2,13,0.00
2013-1-11,80.2,75.6,73.0,71.2,68.4,65.7,86,79,69,30.26,30.16,13,1,13,0.00
2013-1-12,81.0,75.2,71.1,69.1,67.3,64.9,85,77,65,30.19,30.10,9,1,9,0.00
2013-1-13,80.1,75.0,72.3,68.7,66.2,62.6,83,74,65,30.13,30.08,13,2,13,0.00
2013-1-14,79.3,74.9,71.4,68.0,65.2,61.7,82,72,62,30.18,30.12,15,1,15,0.00
2013-1-15,80.2,74.8,71.2,68.5,66.7,63.3,84,76,65,30.14,30.05,9,1,10,0.00
2013-1-16,80.6,73.5,64.0,70.5,67.2,61.7,96,81,68,30.11,30.02,12,1,13,0.02
2013-1-17,79.2,70.1,60.4,71.8,66.3,54.3,99,88,75,30.09,29.97,15,2,15,0.45
2013-1-18,70.5,63.0,51.4,61.0,53.9,46.0,83,72,62,30.23,30.09,12,2,12,0.00
2013-1-19,71.8,68.6,64.8,67.6,64.5,59.5,97,87,70,30.22,30.10,7,0,8,0.20
2013-1-20,78.4,70.2,63.5,70.2,66.5,63.0,99,89,71,30.15,30.02,8,0,9,0.27
2013-1-21,78.8,68.9,63.9,71.2,66.3,63.1,99,92,74,30.08,29.97,10,0,10,0.40
2013-1-22,75.7,67.8,62.1,63.7,59.3,51.6,97,76,58,30.22,30.00,14,2,15,0.01
2013-1-23,74.3,67.4,59.4,59.0,55.2,51.3,86,66,49,30.30,30.20,10,1,12,0.00
2013-1-24,76.5,64.9,57.7,55.9,53.1,45.0,88,68,44,30.30,30.20,10,1,11,0.00
2013-1-25,76.8,65.6,55.9,61.3,56.0,51.3,88,73,52,30.29,30.18,7,0,9,0.00
2013-1-26,77.9,67.0,57.9,60.6,58.0,51.8,95,75,48,30.26,30.17,10,0,10,0.00
2013-1-27,78.3,69.5,59.5,63.7,60.4,57.6,96,75,51,30.30,30.20,10,1,10,0.00
2013-1-28,80.2,74.5,71.2,68.0,64.7,60.3,84,72,59,30.32,30.23,10,1,10,0.00
2013-1-29,78.4,73.9,69.4,70.0,67.5,65.5,93,81,73,30.24,30.13,15,2,15,0.26
2013-1-30,78.3,73.9,70.5,68.7,66.2,62.8,90,77,69,30.13,29.97,18,3,18,0.00
2013-1-31,72.1,66.2,57.0,70.2,58.8,40.6,96,78,48,30.19,29.95,11,1,16,0.00
2013-2-1,73.8,61.9,52.2,56.7,49.4,39.9,77,64,51,30.27,30.17,13,1,16,0.00
2013-2-2,74.7,62.7,54.5,54.1,49.2,37.0,91,63,43,30.27,30.12,8,1,8,0.00
2013-2-3,75.9,61.3,50.4,54.1,49.4,41.2,95,69,32,30.17,30.07,9,0,9,0.00
2013-2-4,74.8,60.8,49.3,55.4,48.2,39.2,90,66,30,30.15,30.03,9,1,9,0.00
2013-2-5,77.4,65.1,51.4,63.9,57.8,50.4,99,79,55,30.09,30.01,9,1,9,0.00
2013-2-6,79.9,69.3,58.6,67.1,62.4,57.6,99,80,63,30.11,30.03,8,0,8,0.00
2013-2-7,79.5,73.7,69.1,69.1,64.9,61.7,82,74,64,30.08,29.94,11,1,12,0.00
2013-2-8,82.9,73.4,66.7,70.0,66.6,63.1,96,80,56,30.04,29.90,14,2,14,0.00
2013-2-9,79.2,70.3,64.0,68.2,64.1,59.5,98,82,65,30.18,30.02,10,1,11,0.00
2013-2-10,76.1,71.5,68.9,63.7,61.9,58.6,77,72,64,30.27,30.15,12,2,12,0.00
2013-2-11,77.7,73.1,69.6,65.8,63.6,60.3,79,72,65,30.23,30.11,13,3,13,0.00
2013-2-12,80.8,73.7,64.9,70.3,67.3,62.6,95,81,68,30.12,29.98,17,3,18,0.00
2013-2-13,81.1,74.6,65.8,73.0,70.0,64.6,98,86,75,30.02,29.89,18,2,18,0.00
2013-2-14,77.9,69.8,62.6,71.8,67.4,61.5,97,92,80,30.01,29.86,19,1,24,0.46
2013-2-15,72.1,66.2,62.6,67.5,64.6,61.7,98,95,82,30.03,29.94,8,0,10,0.53
2013-2-16,73.0,64.6,54.1,63.7,56.7,44.1,98,77,46,30.09,29.88,17,2,18,0.02
2013-2-17,60.1,51.3,43.5,44.6,30.3,18.5,75,47,22,30.31,30.08,20,2,20,0.00
2013-2-18,70.0,59.2,45.9,57.7,45.6,33.1,71,61,47,30.33,30.21,12,1,13,0.00
2013-2-19,76.6,71.2,64.0,66.4,60.9,52.7,90,70,60,30.21,30.09,15,3,15,0.00
2013-2-20,78.4,69.3,61.2,67.8,64.5,60.3,99,86,61,30.12,30.02,6,1,10,0.08
2013-2-21,80.8,73.6,65.3,69.1,66.9,63.7,95,80,64,30.10,30.00,10,1,10,0.00
2013-2-22,81.1,75.5,72.1,72.0,69.8,66.0,90,83,73,30.11,30.02,15,3,15,0.00
2013-2-23,81.0,75.5,70.3,73.0,70.4,68.2,97,85,75,30.06,29.92,17,4,21,0.33
2013-2-24,86.0,75.7,70.0,74.7,71.4,68.7,99,87,60,30.00,29.91,12,2,13,0.34
2013-2-25,81.9,74.7,66.9,74.1,70.8,65.7,98,88,76,29.93,29.82,16,2,16,0.00
2013-2-26,82.6,77.9,74.7,73.9,71.8,69.6,91,82,69,29.90,29.80,18,4,18,0.00
2013-2-27,77.7,69.9,62.1,73.2,65.6,60.3,97,87,62,29.98,29.86,11,1,11,0.20
2013-2-28,71.1,63.9,58.6,63.1,54.0,46.0,97,72,42,30.01,29.91,9,1,9,0.07
2013-3-1,65.3,61.6,57.7,57.7,51.3,47.5,85,69,58,29.99,29.90,9,1,10,0.00
2013-3-2,66.4,57.6,50.5,49.5,42.5,36.1,77,58,41,30.04,29.95,20,2,20,0.00
2013-3-3,62.1,54.2,49.3,46.6,42.2,38.8,88,65,46,30.16,29.96,18,2,18,0.00
2013-3-4,66.0,53.3,41.4,46.0,38.2,31.5,87,59,29,30.22,30.12,10,1,12,0.00
2013-3-5,73.8,61.8,46.8,57.9,52.6,44.4,95,73,54,30.19,30.09,12,1,14,0.00
2013-3-6,78.3,64.4,52.5,63.5,51.5,32.9,95,67,29,30.10,29.94,18,2,18,0.00
2013-3-7,71.2,58.6,46.6,55.2,45.6,35.8,92,64,38,30.19,30.07,9,1,11,0.00
2013-3-8,74.1,61.7,50.7,54.1,51.1,44.4,92,71,36,30.20,30.11,9,1,10,0.00
2013-3-9,74.5,64.3,53.1,58.1,53.5,48.6,92,69,52,30.19,30.10,11,1,11,0.00
2013-3-10,76.5,69.9,65.8,60.8,56.6,52.2,75,63,51,30.17,30.08,7,2,10,0.00
2013-3-11,77.4,71.8,68.2,63.3,60.7,58.8,76,69,55,30.12,29.96,13,3,15,0.00
2013-3-12,79.2,73.8,70.2,70.5,66.1,61.9,85,77,68,30.01,29.91,19,4,19,0.00
2013-3-13,76.8,65.9,56.8,65.7,56.0,44.2,93,72,42,30.12,29.98,14,2,14,0.00
2013-3-14,70.7,60.6,53.2,52.9,47.9,39.2,90,65,36,30.21,30.09,15,2,16,0.00
2013-3-15,72.5,62.0,52.0,55.0,50.7,44.4,84,67,51,30.25,30.15,10,1,10,0.00
2013-3-16,75.0,64.6,52.7,56.8,53.7,51.1,97,70,46,30.20,30.09,13,1,13,0.00
2013-3-17,75.9,67.8,57.0,61.9,58.6,53.6,92,73,58,30.16,30.04,13,1,14,0.00
2013-3-18,79.0,72.2,66.7,70.2,65.7,60.6,97,81,69,30.08,29.97,20,2,20,0.10
2013-3-19,80.1,71.8,66.2,69.4,67.7,64.8,97,88,62,30.01,29.83,16,1,16,0.08
2013-3-20,80.1,70.8,61.9,70.3,65.4,56.8,100,84,55,29.98,29.81,17,1,17,0.01
2013-3-21,76.3,65.6,55.0,61.7,55.1,49.1,94,71,41,29.96,29.83,12,1,14,0.00
2013-3-22,76.1,65.9,51.4,69.6,59.1,50.2,99,81,58,30.01,29.91,11,2,13,0.01
2013-3-23,83.3,76.3,70.2,74.8,72.0,68.9,98,87,71,30.00,29.81,21,2,21,0.00
2013-3-24,90.7,79.4,72.3,73.4,71.4,66.9,96,78,51,29.90,29.68,23,4,23,0.01
2013-3-25,81.3,73.6,64.6,72.5,59.2,38.3,94,65,33,29.99,29.75,13,2,15,0.02
2013-3-26,70.0,61.0,52.5,43.7,38.1,30.7,58,44,25,30.21,29.99,17,2,17,0.00
2013-3-27,68.9,56.7,45.3,48.2,41.8,33.6,78,58,39,30.25,30.17,10,1,12,0.00
2013-3-28,71.8,60.2,49.5,51.3,45.1,31.5,83,60,29,30.27,30.18,10,1,10,0.00
2013-3-29,75.6,63.9,53.1,54.3,50.0,44.8,82,62,43,30.29,30.21,11,1,11,0.00
2013-3-30,75.7,68.1,59.5,55.2,52.6,49.1,82,59,40,30.27,30.17,9,1,9,0.00
2013-3-31,79.2,72.5,67.3,66.4,62.0,54.7,83,70,59,30.19,30.05,15,3,15,0.00
2013-4-1,87.4,76.4,70.5,71.6,66.6,61.3,89,73,43,30.06,29.94,17,3,19,0.01
2013-4-2,81.9,73.4,65.1,67.6,65.8,64.2,98,79,57,30.08,29.99,11,1,11,0.01
2013-4-3,81.3,75.8,70.7,70.5,68.5,66.2,86,78,68,30.07,30.00,12,2,13,0.00
2013-4-4,81.9,74.8,68.4,73.4,70.0,66.7,97,85,74,30.06,29.91,20,3,20,0.50
2013-4-5,72.9,68.2,64.8,71.2,65.8,63.9,97,92,82,29.99,29.82,15,2,15,0.51
2013-4-6,76.6,68.2,58.3,66.2,61.5,56.5,97,80,62,30.09,29.92,11,1,13,0.01
2013-4-7,78.8,73.3,70.5,65.3,62.9,60.6,77,70,59,30.14,30.03,12,2,12,0.00
2013-4-8,81.1,72.9,61.0,65.7,61.9,58.5,97,70,52,30.14,30.05,9,1,9,0.00
2013-4-9,82.2,75.8,72.1,69.3,66.9,64.2,84,74,61,30.16,30.05,10,1,11,0.00
2013-4-10,83.5,77.0,72.9,73.2,70.2,65.7,87,80,70,30.11,30.00,15,1,15,0.00
2013-4-11,81.7,77.3,73.9,73.4,71.7,69.8,90,83,74,30.03,29.91,15,4,16,0.01
2013-4-12,84.9,78.8,76.3,76.8,74.4,72.7,95,87,75,29.96,29.88,19,4,19,0.15
2013-4-13,84.4,76.0,70.5,76.3,72.4,67.5,95,89,73,29.97,29.88,14,1,14,0.29
2013-4-14,84.7,78.5,70.2,75.9,73.8,68.9,99,86,72,29.98,29.90,15,2,15,0.00
2013-4-15,85.8,77.2,70.0,77.2,73.0,67.8,97,88,68,30.07,29.93,18,1,18,0.49
2013-4-16,86.2,77.3,69.6,77.2,72.8,68.7,100,87,71,30.12,30.02,10,1,10,0.08
2013-4-17,83.7,77.8,73.0,71.2,69.1,66.9,86,75,62,30.12,30.03,10,1,11,0.00
2013-4-18,85.5,79.2,75.0,74.7,71.3,68.0,85,77,67,30.07,29.98,11,2,12,0.00
2013-4-19,86.4,80.7,77.7,75.0,72.9,70.3,87,77,66,30.06,29.97,18,4,18,0.00
2013-4-20,86.9,77.7,71.8,76.3,73.1,68.7,98,86,66,30.09,29.96,15,1,16,0.25
2013-4-21,83.5,76.9,71.2,74.7,71.9,69.6,97,85,71,30.10,29.99,13,1,13,0.04
2013-4-22,83.1,74.3,69.4,72.5,69.7,67.3,97,86,63,30.05,29.93,10,1,11,0.91
2013-4-23,82.9,74.9,66.9,69.8,66.2,61.2,97,76,58,30.09,29.96,15,2,15,0.01
2013-4-24,83.8,77.0,72.0,66.9,64.0,59.9,76,65,54,30.14,30.04,11,1,11,0.00
2013-4-25,82.8,76.1,71.1,65.3,62.9,60.4,75,64,52,30.20,30.08,8,1,9,0.00
2013-4-26,82.8,75.7,68.4,67.3,64.5,60.8,83,69,57,30.23,30.12,12,1,12,0.00
2013-4-27,82.2,76.6,72.0,67.5,64.4,61.2,76,66,55,30.21,30.09,12,2,12,0.00
2013-4-28,83.1,77.0,72.3,67.6,64.2,61.9,73,65,53,30.12,30.00,11,1,11,0.00
2013-4-29,83.3,77.4,73.9,71.1,68.0,62.6,83,73,61,30.04,29.94,14,2,14,0.00
2013-4-30,80.6,75.9,70.0,72.3,69.9,68.2,94,82,72,30.00,29.93,14,1,14,0.11
2013-5-1,84.6,74.7,68.4,73.9,70.6,66.9,98,88,67,30.01,29.93,8,0,9,0.13
2013-5-2,79.3,71.9,66.2,72.7,69.6,64.9,98,93,79,29.94,29.81,13,1,15,6.21
2013-5-3,87.3,74.5,68.2,72.1,69.2,66.7,98,85,53,29.82,29.68,14,1,16,0.09
2013-5-4,89.1,76.2,66.7,71.6,68.0,65.7,98,78,50,29.81,29.69,14,1,14,0.05
2013-5-5,83.7,73.6,61.3,67.8,62.4,52.2,94,71,37,29.94,29.75,12,2,14,0.00
2013-5-6,85.3,70.2,57.0,64.2,60.3,54.7,97,73,44,30.02,29.92,10,1,10,0.01
2013-5-7,84.6,72.4,61.2,66.6,61.2,56.8,89,69,45,30.07,29.97,14,1,14,0.00
2013-5-8,85.1,73.6,61.5,66.2,61.9,53.1,93,69,34,30.14,30.04,10,1,10,0.00
2013-5-9,86.2,76.7,64.6,73.6,68.0,58.6,91,75,60,30.15,30.06,9,1,10,0.00
2013-5-10,87.1,80.1,73.0,74.8,72.4,69.4,90,78,60,30.14,30.01,14,2,14,0.00
2013-5-11,85.3,78.6,72.0,75.6,73.2,69.6,98,84,72,30.08,29.98,17,2,17,0.01
2013-5-12,86.4,77.1,70.0,75.2,71.7,67.3,98,84,65,30.06,29.94,15,2,15,0.81
2013-5-13,89.1,77.5,70.0,72.9,69.8,64.9,98,79,48,30.09,29.99,11,1,11,0.02
2013-5-14,82.6,76.4,72.5,66.4,61.2,55.8,77,60,47,30.18,30.06,12,2,12,0.00
2013-5-15,82.6,76.3,71.4,66.4,61.6,56.5,73,61,47,30.20,30.10,9,1,11,0.00
2013-5-16,83.7,76.5,69.4,65.5,62.3,57.7,74,62,51,30.12,30.05,10,1,10,0.00
2013-5-17,86.2,78.2,69.4,73.9,70.2,63.5,94,77,63,30.10,30.01,9,1,10,0.00
2013-5-18,85.3,78.8,73.2,74.5,72.0,69.4,96,80,67,30.11,30.04,14,1,14,0.01
2013-5-19,86.5,79.8,74.8,71.6,69.9,68.2,83,72,59,30.11,30.00,10,1,10,0.02
2013-5-20,82.0,75.5,68.7,74.3,71.8,66.6,98,88,76,30.09,29.97,14,1,16,2.14
2013-5-21,82.8,76.2,69.4,74.8,71.2,68.2,98,85,66,30.05,29.94,11,1,11,0.39
2013-5-22,84.6,75.7,69.3,75.7,72.1,66.7,97,89,73,29.98,29.90,15,1,15,1.20
2013-5-23,94.3,81.6,73.2,76.6,73.2,65.8,97,78,40,30.01,29.91,12,1,12,0.01
2013-5-24,89.6,82.0,75.6,77.0,74.5,70.0,97,79,58,30.06,29.94,10,1,10,0.00
2013-5-25,85.8,79.3,71.8,74.8,68.6,63.3,96,71,52,30.17,30.04,12,2,12,0.05
2013-5-26,85.3,79.0,73.2,69.4,65.7,58.1,78,64,55,30.18,30.11,14,1,14,0.00
2013-5-27,84.7,78.5,72.3,73.6,70.3,64.4,95,76,68,30.16,30.07,11,2,14,0.18
2013-5-28,82.2,77.7,73.8,74.5,72.8,70.5,95,85,74,30.12,30.04,18,2,18,0.23
2013-5-29,81.9,75.3,70.5,74.8,71.6,67.6,97,89,72,30.10,30.03,18,2,18,2.76
2013-5-30,84.7,78.2,71.6,75.6,72.4,69.1,94,82,70,30.08,30.01,17,2,17,0.18
2013-5-31,85.3,78.8,73.8,76.3,73.8,70.9,96,85,73,30.07,30.00,14,2,15,0.22
2013-6-1,85.8,77.2,73.2,78.1,74.4,72.3,97,91,75,30.04,29.96,13,1,13,1.06
2013-6-2,88.3,78.7,71.2,77.4,73.6,70.7,99,85,64,30.01,29.92,14,1,14,0.00
2013-6-3,86.2,78.2,71.2,77.7,73.8,70.3,99,87,69,30.04,29.91,12,1,12,0.10
2013-6-4,85.1,78.3,72.9,77.0,74.4,71.2,98,88,65,30.05,29.96,7,0,9,0.16
2013-6-5,83.5,80.5,78.4,77.7,76.2,74.1,91,87,81,30.02,29.90,8,0,8,0.04
2013-6-6,86.5,79.6,75.6,79.5,75.9,71.8,96,88,77,29.91,29.78,22,4,22,0.88
2013-6-7,91.2,77.2,73.2,78.1,73.5,71.8,98,89,60,29.99,29.84,18,1,18,0.43
2013-6-8,87.4,78.5,73.6,80.6,75.7,73.0,98,92,78,30.11,29.97,11,1,12,0.82
2013-6-9,88.2,82.2,77.4,77.9,75.5,73.4,94,80,68,30.12,30.04,11,1,12,0.07
2013-6-10,89.1,83.0,79.3,78.3,76.4,74.3,88,81,68,30.10,30.01,9,1,11,0.00
2013-6-11,87.8,82.1,79.3,78.4,76.4,73.0,91,83,64,30.09,30.01,15,1,15,0.00
2013-6-12,88.9,80.6,76.3,78.8,76.4,74.8,97,87,71,30.09,30.02,8,0,8,0.01
2013-6-13,88.9,80.1,73.8,78.3,74.4,71.2,99,84,64,30.05,29.94,11,1,11,0.00
2013-6-14,94.6,80.9,73.6,77.2,73.2,70.5,97,79,50,29.98,29.88,13,1,13,0.00
2013-6-15,91.9,82.1,74.1,77.4,74.8,72.1,97,80,58,30.06,29.92,7,0,8,0.00
2013-6-16,90.7,82.7,74.1,78.4,75.8,72.7,98,81,64,30.10,30.02,9,1,10,0.00
2013-6-17,90.9,84.3,78.3,78.3,75.9,73.8,88,77,63,30.09,30.01,11,1,13,0.00
2013-6-18,89.4,84.0,79.2,77.4,75.8,74.3,87,77,64,30.07,29.99,13,2,13,0.00
2013-6-19,90.0,83.0,76.8,77.9,76.0,74.7,96,80,65,30.05,29.99,14,2,14,0.20
2013-6-20,89.8,81.5,72.3,76.8,74.0,67.1,93,79,64,30.09,30.02,14,1,14,0.02
2013-6-21,90.1,84.2,80.2,76.1,74.4,72.1,84,73,60,30.12,30.03,10,1,10,0.00
2013-6-22,90.0,83.6,78.3,75.9,74.2,72.5,86,74,62,30.11,30.04,9,1,9,0.00
2013-6-23,90.0,83.0,77.2,77.0,74.6,72.1,92,76,61,30.14,30.05,12,1,13,0.07
2013-6-24,90.0,83.9,77.4,76.8,74.3,71.2,88,73,62,30.17,30.08,9,1,9,0.04
2013-6-25,90.5,83.5,79.3,78.3,75.5,72.7,87,77,65,30.14,30.05,12,1,12,0.00
2013-6-26,90.0,83.1,76.5,77.0,75.2,72.1,92,78,61,30.09,30.01,11,2,12,0.05
2013-6-27,90.1,82.0,76.6,77.9,75.2,72.5,93,80,63,30.06,29.96,8,0,9,0.01
2013-6-28,88.5,80.2,73.6,77.5,74.2,70.0,97,83,67,30.00,29.87,13,1,13,0.65
2013-6-29,89.2,79.7,73.9,78.1,75.1,70.7,98,87,63,29.93,29.82,16,1,18,0.48
2013-6-30,88.3,80.7,75.9,77.5,74.8,71.8,93,83,62,29.96,29.85,18,2,18,0.01
2013-7-1,89.1,81.8,73.2,79.5,75.8,70.5,97,82,70,30.05,29.92,17,2,17,0.25
2013-7-2,88.7,82.4,75.7,79.3,76.7,73.9,96,83,71,30.12,29.98,13,2,14,0.26
2013-7-3,88.5,81.4,77.4,78.6,75.8,73.6,92,83,70,30.13,30.05,14,2,16,0.23
2013-7-4,89.4,83.6,78.3,78.4,75.6,72.1,88,77,64,30.16,30.07,14,2,14,0.02
2013-7-5,86.5,80.8,76.3,78.8,75.6,73.0,93,84,73,30.15,30.06,13,1,14,0.46
2013-7-6,90.3,82.6,79.7,78.1,75.2,73.0,87,79,64,30.13,30.04,11,1,12,0.16
2013-7-7,90.0,83.3,78.3,78.6,75.5,73.4,90,78,66,30.11,30.03,17,1,17,0.06
2013-7-8,91.4,83.5,78.6,76.6,74.3,72.3,86,74,59,30.15,30.08,9,1,10,0.00
2013-7-9,89.4,81.4,74.3,75.7,73.2,70.0,92,77,57,30.14,30.05,7,1,10,0.13
2013-7-10,85.1,78.2,70.2,76.3,73.5,68.0,98,86,74,30.09,30.00,10,1,11,0.58
2013-7-11,89.4,82.4,75.7,78.1,75.4,72.7,94,80,67,30.05,29.95,12,1,12,0.00
2013-7-12,91.4,80.1,74.8,77.4,73.5,69.1,97,81,56,29.97,29.90,13,1,13,0.00
2013-7-13,87.6,75.7,71.8,77.4,73.0,70.7,98,92,70,30.04,29.92,10,0,10,0.66
2013-7-14,89.6,78.6,71.8,77.2,73.4,70.5,98,85,61,30.10,29.99,11,1,11,0.22
2013-7-15,89.1,79.8,71.4,78.1,73.7,70.2,98,83,63,30.10,30.01,10,0,11,0.21
2013-7-16,84.0,77.6,71.8,75.0,71.9,68.7,97,83,66,30.15,30.05,21,1,21,0.75
2013-7-17,81.0,77.5,73.2,74.8,73.1,69.1,96,86,74,30.15,30.05,14,0,14,0.23
2013-7-18,84.6,76.2,72.1,77.4,73.4,69.4,99,91,72,30.13,30.06,16,0,16,0.42
2013-7-19,88.3,80.3,72.5,79.0,75.9,71.8,99,87,72,30.14,30.05,12,1,12,0.14
2013-7-20,88.0,81.7,76.6,79.5,76.7,73.0,91,85,72,30.12,30.04,15,2,16,0.00
2013-7-21,88.5,80.3,74.3,79.7,76.1,72.5,97,87,72,30.17,30.05,11,1,11,0.36
2013-7-22,88.5,82.2,74.1,77.5,75.9,72.9,98,82,66,30.15,30.07,8,2,14,0.36
2013-7-23,89.8,82.7,75.4,79.2,75.8,73.6,96,80,64,30.11,29.98,15,2,15,0.00
2013-7-24,93.7,84.0,76.6,78.3,74.0,67.8,94,73,51,30.03,29.91,12,1,12,0.00
2013-7-25,94.5,84.1,73.9,76.8,74.4,71.2,96,74,53,30.02,29.92,12,1,12,0.00
2013-7-26,93.0,82.7,77.7,78.1,75.3,73.2,90,79,56,30.03,29.94,13,1,15,0.00
2013-7-27,90.1,79.5,74.8,78.1,75.2,72.1,95,87,66,30.01,29.94,12,1,12,0.09
2013-7-28,86.5,79.0,73.6,78.6,75.2,70.9,96,89,72,30.08,29.96,9,0,9,0.57
2013-7-29,90.1,82.1,74.8,80.1,76.5,73.6,97,84,69,30.14,30.03,8,0,9,0.00
2013-7-30,90.7,83.9,75.7,80.1,77.3,69.4,96,81,67,30.17,30.08,11,1,11,0.02
2013-7-31,91.8,84.6,79.5,78.6,76.1,72.3,91,76,61,30.12,30.01,10,1,10,0.01
2013-8-1,90.3,83.9,79.5,77.0,74.6,72.3,84,74,61,30.06,29.95,9,1,10,0.00
2013-8-2,89.4,80.3,74.7,77.5,74.1,71.8,95,82,59,30.06,29.92,10,0,10,0.05
2013-8-3,85.8,76.8,70.2,78.8,74.3,68.2,99,92,77,30.16,30.03,31,0,31,1.31
2013-8-4,91.6,79.8,73.8,78.8,75.0,71.8,100,87,62,30.11,29.98,12,1,12,0.02
2013-8-5,92.7,80.4,75.2,80.2,75.8,72.3,96,86,63,30.04,29.95,9,0,10,0.23
2013-8-6,90.9,81.4,73.8,79.2,75.6,72.0,99,83,66,29.99,29.89,10,1,10,0.00
2013-8-7,88.9,82.6,75.7,78.6,76.2,73.6,97,82,67,29.99,29.91,15,1,15,0.00
2013-8-8,90.9,85.0,81.1,78.6,75.9,73.6,85,75,61,30.02,29.93,11,1,11,0.00
2013-8-9,88.9,82.8,80.1,78.1,74.8,70.9,84,77,65,30.07,29.96,15,1,15,0.00
2013-8-10,91.9,84.5,80.1,79.2,76.5,74.5,85,77,65,30.12,30.04,10,1,11,0.00
2013-8-11,91.6,85.1,80.8,79.5,76.9,74.1,84,77,66,30.14,30.06,8,1,9,0.00
2013-8-12,90.0,83.7,77.7,77.7,75.2,72.7,87,76,63,30.12,30.02,10,1,10,0.00
2013-8-13,90.9,84.6,80.1,78.4,75.9,74.1,88,76,61,30.05,29.96,12,1,12,0.00
2013-8-14,90.7,84.3,78.6,77.2,75.3,73.4,88,75,61,30.03,29.94,13,2,13,0.00
2013-8-15,87.1,80.9,74.7,77.5,75.6,72.7,97,84,68,30.07,29.97,10,1,10,0.41
2013-8-16,91.2,84.0,77.4,80.4,77.6,75.0,97,82,66,30.06,29.99,9,1,10,0.01
2013-8-17,91.6,85.3,81.7,80.1,78.0,76.1,87,79,67,30.09,30.01,10,1,10,0.00
2013-8-18,91.0,85.0,81.1,80.1,77.2,74.3,85,78,67,30.09,30.00,14,1,15,0.00
2013-8-19,91.4,85.0,81.1,79.0,77.2,75.4,87,78,66,30.08,29.97,11,1,11,0.00
2013-8-20,90.9,84.3,77.0,78.8,76.6,72.3,94,78,64,30.07,29.99,9,1,9,0.05
2013-8-21,90.5,83.3,77.9,80.4,77.6,75.0,94,83,70,30.09,30.00,11,1,11,0.11
2013-8-22,91.2,85.0,80.4,80.1,77.6,73.6,92,79,68,30.07,29.96,11,1,12,0.23
2013-8-23,90.1,83.4,80.4,80.4,76.7,74.1,89,80,65,30.02,29.94,13,0,13,0.09
2013-8-24,91.6,83.9,76.8,78.6,76.1,72.1,94,78,65,30.11,29.98,9,1,9,0.00
2013-8-25,86.9,80.8,74.7,77.0,75.1,71.6,96,83,68,30.16,30.03,9,0,10,0.03
2013-8-26,90.9,80.5,72.7,78.1,74.8,70.5,97,84,60,30.12,30.01,12,0,12,0.22
2013-8-27,86.5,77.6,72.9,77.0,73.0,70.7,98,87,64,30.06,29.97,8,0,8,0.07
2013-8-28,89.1,80.7,74.1,77.0,74.3,66.2,97,82,63,30.04,29.96,12,1,12,0.04
2013-8-29,90.5,81.5,72.9,78.8,75.2,68.0,97,82,66,30.04,29.93,9,1,9,0.04
2013-8-30,90.5,82.7,73.8,76.8,74.8,71.1,98,78,55,30.01,29.91,12,1,12,0.00
2013-8-31,89.2,80.0,73.2,78.1,74.5,70.5,96,84,67,29.99,29.92,9,1,9,0.02
2013-9-1,89.4,79.2,72.9,78.8,74.9,71.6,99,88,69,30.01,29.94,9,0,9,0.00
2013-9-2,90.7,77.7,72.0,78.6,74.3,70.0,99,90,64,30.04,29.95,9,0,18,1.62
2013-9-3,90.9,80.1,70.7,79.0,75.0,70.3,100,86,64,30.03,29.94,8,0,8,0.01
2013-9-4,88.0,82.5,78.3,79.5,77.0,74.5,91,84,74,30.07,29.95,7,0,7,0.00
2013-9-5,92.3,84.8,80.1,80.1,77.4,75.6,91,79,65,30.08,30.00,9,0,10,0.08
2013-9-6,90.9,83.7,77.4,80.1,77.3,75.6,97,82,63,30.04,29.93,8,0,8,0.11
2013-9-7,87.4,77.6,72.9,79.0,74.6,71.1,98,91,75,29.99,29.91,9,0,10,0.25
2013-9-8,89.6,79.6,73.0,79.2,74.6,72.1,98,86,65,29.95,29.86,7,0,7,0.03
2013-9-9,89.4,81.3,72.7,78.1,74.7,71.4,98,81,62,30.01,29.90,9,1,9,0.04
2013-9-10,88.5,82.2,78.1,78.1,75.3,72.9,90,80,69,30.05,29.96,8,1,16,0.04
2013-9-11,82.8,79.8,74.5,79.0,75.1,71.6,96,86,80,30.07,29.97,11,0,11,0.42
2013-9-12,85.5,79.7,75.4,77.7,75.8,73.2,96,88,77,30.02,29.89,8,0,8,0.14
2013-9-13,90.1,81.1,73.0,78.8,75.1,72.0,100,83,65,29.91,29.81,11,0,11,1.06
2013-9-14,90.9,82.8,74.1,77.7,75.4,72.9,98,79,61,29.98,29.83,8,0,10,0.00
2013-9-15,87.3,81.1,77.2,79.3,76.0,70.0,93,84,72,30.06,29.93,16,1,16,0.00
2013-9-16,85.8,80.6,75.2,79.0,76.0,72.9,96,86,73,30.06,29.96,13,1,13,0.45
2013-9-17,80.6,78.6,73.2,77.7,75.0,71.4,97,89,82,30.04,29.92,9,1,10,0.97
2013-9-18,87.4,78.7,73.9,78.4,75.2,72.3,97,89,70,30.02,29.91,7,0,10,0.36
2013-9-19,88.0,79.8,73.0,78.4,74.6,70.9,99,85,71,30.01,29.92,10,1,14,0.04
2013-9-20,88.0,81.3,75.0,74.1,71.1,68.5,86,72,57,30.00,29.90,12,1,12,0.00
2013-9-21,88.2,81.2,73.9,74.8,72.5,69.6,90,75,63,29.92,29.78,7,0,8,0.00
2013-9-22,88.3,82.1,75.4,78.6,75.5,72.5,95,81,62,29.87,29.76,13,1,13,0.00
2013-9-23,87.1,79.7,75.6,79.2,76.4,72.5,97,90,71,29.98,29.86,19,0,19,0.14
2013-9-24,91.8,79.4,73.6,80.4,76.0,71.6,99,90,62,29.97,29.87,14,1,15,0.91
2013-9-25,90.3,80.0,71.4,80.1,74.2,70.5,98,84,57,29.91,29.80,13,1,13,0.00
2013-9-26,91.8,80.2,74.7,79.9,76.2,72.9,97,88,66,29.87,29.79,11,1,18,0.17
2013-9-27,90.9,80.0,73.2,76.5,73.9,70.9,98,83,54,29.92,29.82,11,1,12,0.05
2013-9-28,87.6,78.9,72.0,76.5,73.0,69.8,98,83,64,29.96,29.88,9,1,9,0.33
2013-9-29,88.2,80.6,72.9,72.9,70.7,68.5,93,73,56,29.97,29.88,8,0,10,0.03
2013-9-30,88.3,80.4,71.1,73.4,71.2,69.1,96,75,58,30.01,29.91,6,0,8,0.00
2013-10-1,88.0,82.3,77.2,76.1,72.9,70.3,83,74,62,30.04,29.96,10,1,10,0.00
2013-10-2,87.6,82.1,79.3,74.8,73.2,71.2,84,75,62,30.05,29.97,10,1,10,0.00
2013-10-3,88.0,81.9,77.2,75.6,73.4,71.4,85,76,60,30.06,29.96,10,0,10,0.00
2013-10-4,88.5,81.2,75.2,74.1,72.0,69.1,87,74,61,30.06,29.99,8,0,8,0.00
2013-10-5,90.0,79.8,70.0,75.7,71.4,67.8,97,77,60,30.04,29.94,8,0,9,0.00
2013-10-6,89.8,81.7,75.4,76.1,73.1,70.2,91,76,56,29.97,29.87,8,0,8,0.00
2013-10-7,91.8,78.5,72.1,77.5,72.5,69.8,95,83,52,29.91,29.81,18,1,19,0.04
2013-10-8,92.7,80.5,75.0,77.9,74.4,70.0,97,83,55,29.94,29.85,10,1,11,0.02
2013-10-9,84.7,77.3,70.5,76.5,72.7,68.9,95,86,73,29.99,29.90,13,1,13,0.00
2013-10-10,87.1,79.4,70.9,75.6,71.7,68.2,96,79,59,30.01,29.94,12,1,12,0.00
2013-10-11,86.2,77.6,67.8,72.5,68.2,65.8,98,74,58,30.02,29.94,10,1,11,0.00
2013-10-12,86.5,76.9,66.0,71.2,68.0,64.6,98,76,57,30.03,29.95,8,0,8,0.00
2013-10-13,85.6,77.4,70.0,73.2,67.4,63.1,95,73,48,30.05,29.97,14,1,14,0.01
2013-10-14,87.4,78.0,68.2,71.8,68.8,66.7,96,75,55,30.02,29.91,8,0,8,0.00
2013-10-15,86.7,77.9,70.0,73.4,70.4,68.4,96,79,62,29.96,29.88,9,1,9,0.00
2013-10-16,86.2,77.8,70.3,72.1,69.8,67.1,95,77,61,29.96,29.89,7,0,7,0.00
2013-10-17,87.1,79.0,69.6,73.6,71.0,68.4,98,78,59,29.97,29.89,7,0,7,0.00
2013-10-18,88.0,80.2,71.1,75.0,72.3,69.4,97,78,63,29.99,29.91,8,1,10,0.00
2013-10-19,87.3,81.7,76.3,75.0,73.1,70.9,87,76,63,29.97,29.88,11,1,12,0.00
2013-10-20,88.3,80.9,74.8,78.1,75.2,72.7,96,83,65,29.97,29.88,11,1,11,0.00
2013-10-21,87.8,81.7,74.1,77.5,75.5,72.9,97,82,70,30.01,29.91,11,1,12,0.00
2013-10-22,88.3,82.0,75.0,77.9,75.7,72.3,93,82,69,29.97,29.83,13,2,14,0.00
2013-10-23,90.5,80.1,75.0,75.6,72.9,68.4,94,79,59,29.96,29.82,10,1,10,0.00
2013-10-24,81.5,76.3,71.8,68.9,65.5,60.3,82,70,57,30.09,29.94,12,1,12,0.00
2013-10-25,82.6,76.5,68.2,67.1,64.1,61.9,85,66,54,30.16,30.06,14,2,14,0.00
2013-10-26,84.9,76.7,67.6,65.5,63.2,61.0,87,64,51,30.15,30.06,10,1,10,0.00
2013-10-27,84.6,74.1,64.8,67.1,63.3,59.9,87,70,50,30.09,30.03,9,0,9,0.00
2013-10-28,85.3,78.3,72.9,68.2,64.9,61.9,75,64,48,30.14,30.05,9,1,10,0.00
2013-10-29,85.6,78.8,71.1,71.2,67.4,64.8,87,69,57,30.18,30.09,13,1,13,0.00
2013-10-30,84.6,79.0,75.7,70.3,67.4,65.1,75,68,57,30.19,30.09,11,2,12,0.00
2013-10-31,86.7,80.0,76.5,73.6,70.7,65.5,84,74,61,30.12,30.00,12,1,12,0.00
2013-11-1,86.2,80.6,77.2,75.4,72.9,71.1,83,78,69,30.01,29.89,14,2,14,0.01
2013-11-2,90.3,78.8,69.4,73.4,69.7,62.2,99,76,48,29.94,29.81,12,1,12,0.00
2013-11-3,82.6,74.4,67.8,66.6,63.5,61.3,85,70,54,30.03,29.89,16,2,16,0.00
2013-11-4,80.4,76.3,72.3,68.7,64.3,56.5,85,67,50,30.08,30.01,18,3,18,0.05
2013-11-5,81.7,78.5,76.3,71.4,69.0,65.3,79,73,65,30.10,30.02,16,3,17,0.00
2013-11-6,84.7,78.4,72.3,70.7,68.9,66.7,86,73,60,30.07,30.00,15,2,16,0.00
2013-11-7,85.5,75.7,68.5,73.2,69.8,67.1,97,83,59,30.02,29.92,10,1,10,0.00
2013-11-8,83.8,76.5,70.2,73.2,70.4,67.1,95,82,62,30.04,29.94,15,2,15,0.17
2013-11-9,78.1,75.8,72.7,72.1,71.1,69.8,95,86,79,30.12,30.01,15,3,20,0.38
2013-11-10,83.7,78.4,76.6,73.0,70.6,68.0,83,77,69,30.12,30.05,11,1,11,0.00
2013-11-11,83.5,78.0,75.0,72.0,68.9,66.0,82,74,65,30.12,30.05,10,1,10,0.00
2013-11-12,84.7,77.5,70.3,70.0,68.3,66.4,93,74,59,30.09,29.97,9,1,9,0.00
2013-11-13,76.5,71.5,68.2,67.6,63.4,55.8,91,76,63,30.22,29.99,19,4,20,0.09
2013-11-14,77.0,72.3,68.9,62.2,58.6,54.7,70,62,55,30.25,30.14,15,3,15,0.00
2013-11-15,81.3,76.3,72.9,69.4,66.9,61.7,77,73,64,30.15,30.04,16,2,16,0.00
2013-11-16,80.4,77.5,73.4,72.5,70.2,66.9,92,78,70,30.10,30.02,11,1,11,0.06
2013-11-17,83.7,78.9,75.9,73.9,71.2,68.9,86,77,68,30.09,30.01,11,1,12,0.01
2013-11-18,83.8,77.3,70.9,74.3,71.3,69.3,97,82,68,30.04,29.93,10,0,11,0.00
2013-11-19,84.4,74.5,70.7,74.7,71.3,69.3,98,90,68,29.94,29.86,6,0,7,3.29
2013-11-20,83.7,75.8,68.7,75.2,71.9,68.2,99,88,73,30.06,29.93,7,0,8,0.02
2013-11-21,80.2,75.9,71.1,74.1,71.8,69.4,96,88,80,30.15,30.04,14,1,14,0.77
2013-11-22,81.9,77.5,75.4,72.3,70.2,68.0,84,79,70,30.16,30.07,15,2,15,0.00
2013-11-23,82.8,76.8,71.1,72.3,70.2,68.2,91,81,68,30.09,29.98,10,1,10,0.00
2013-11-24,81.3,72.6,66.0,70.9,67.1,63.3,98,84,64,30.15,29.99,17,2,20,0.57
2013-11-25,74.1,72.5,71.1,68.7,64.6,59.5,85,76,66,30.21,30.06,16,3,16,0.00
2013-11-26,82.2,77.1,71.6,75.0,72.6,68.4,93,86,78,30.06,29.83,18,3,18,0.07
2013-11-27,77.7,70.9,56.8,74.8,64.8,50.7,97,82,54,30.12,29.79,20,2,20,0.63
2013-11-28,73.8,62.7,47.8,60.3,53.2,45.0,91,73,54,30.25,30.12,10,2,12,0.00
2013-11-29,76.6,70.6,59.2,63.3,59.7,55.0,92,69,57,30.27,30.19,14,2,14,0.00
2013-11-30,75.7,70.5,60.8,69.6,63.4,59.0,95,79,66,30.22,30.11,14,2,17,0.32
2013-12-1,82.0,70.5,62.8,70.5,66.3,60.8,97,87,68,30.11,29.94,9,0,9,1.00
2013-12-2,74.8,67.0,59.9,67.1,63.9,58.6,99,90,64,29.95,29.83,12,1,14,0.21
2013-12-3,78.6,68.6,57.9,65.3,62.8,57.0,99,83,55,30.01,29.90,7,0,7,0.01
2013-12-4,81.7,71.2,62.1,69.4,65.4,61.2,99,83,63,30.10,29.99,11,1,11,0.00
2013-12-5,82.2,75.5,66.6,71.4,68.9,64.6,96,80,68,30.17,30.08,13,1,13,0.00
2013-12-6,82.2,77.3,73.2,71.1,69.2,66.4,83,76,67,30.19,30.09,13,2,15,0.00
2013-12-7,82.9,75.2,68.2,73.6,69.5,66.0,96,83,67,30.22,30.14,9,1,9,0.03
2013-12-8,83.1,77.7,73.6,71.4,69.3,65.8,88,76,64,30.21,30.13,13,1,14,0.00
2013-12-9,82.8,78.1,75.2,71.1,68.9,66.2,83,74,61,30.20,30.11,12,2,13,0.00
2013-12-10,82.9,77.4,70.7,73.0,70.9,68.9,95,81,70,30.17,30.07,13,1,13,0.00
2013-12-11,84.4,74.9,67.8,74.1,70.4,66.9,99,87,67,30.20,30.12,7,0,7,0.01
2013-12-12,79.5,72.2,69.3,71.2,66.8,59.0,98,84,66,30.23,30.14,14,2,17,0.02
2013-12-14,81.0,77.7,74.8,72.5,71.1,68.5,88,80,72,30.12,29.99,15,3,15,0.02
2013-12-15,83.7,76.2,70.2,74.8,71.4,67.1,95,86,72,30.06,29.93,13,1,13,0.00
2013-12-16,74.8,67.6,61.3,67.1,61.3,58.5,91,81,65,30.16,30.04,10,1,10,0.00
2013-12-17,77.2,65.8,58.1,64.4,59.1,56.5,96,80,57,30.19,30.10,10,1,10,0.00
2013-12-18,76.6,65.6,58.5,60.1,57.9,56.1,95,78,53,30.24,30.14,12,1,13,0.01
2013-12-19,78.3,69.7,58.6,63.5,60.0,56.3,94,72,55,30.25,30.16,11,1,12,0.00
2013-12-20,81.9,76.4,72.3,70.5,67.3,61.9,81,74,67,30.19,30.11,12,1,12,0.00
2013-12-21,82.2,77.8,75.6,73.4,71.4,68.7,87,81,72,30.15,30.06,13,2,16,0.00
2013-12-22,83.1,78.5,76.5,73.6,72.1,70.3,86,81,71,30.17,30.09,16,3,16,0.00
2013-12-23,82.9,77.4,69.3,74.3,71.9,67.8,96,83,74,30.18,30.12,14,2,14,0.00
2013-12-24,83.8,71.4,66.0,72.9,66.8,62.1,99,86,66,30.18,30.09,14,2,17,0.01
2013-12-25,78.3,73.0,70.2,67.3,65.5,63.5,83,77,68,30.18,30.10,13,2,14,0.00
2013-12-26,77.7,74.7,72.3,70.3,68.8,66.6,91,82,76,30.17,30.07,11,1,11,0.14
2013-12-27,81.1,75.6,72.0,72.1,69.5,67.1,92,82,74,30.20,30.09,11,1,11,0.14
2013-12-28,79.5,75.5,71.4,72.7,70.3,67.3,91,84,77,30.18,30.03,14,2,14,0.01
2013-12-29,81.0,77.0,73.4,74.7,72.8,71.4,96,87,78,30.04,29.93,17,3,17,0.04
2013-12-30,79.2,72.2,68.7,72.3,69.3,64.6,98,91,77,30.15,29.98,8,0,8,0.00
2013-12-31,79.0,72.5,67.3,67.5,64.6,62.1,89,77,63,30.23,30.11,13,2,14,0.00
2014-1-1,80.6,75.9,72.0,73.6,70.2,64.0,89,83,73,30.20,30.05,13,2,13,0.00
2014-1-2,85.6,77.6,72.7,72.5,69.1,64.8,90,76,50,30.04,29.87,16,2,16,0.00